sensor_id;sensor_type;location;lat;lon;timestamp;P1;durP1;ratioP1;P2;durP2;ratioP2
26484;SDS011;18083;50.560;7.262;2022-11-09T00:01:26;7.67;;;2.15;;
26484;SDS011;18083;50.560;7.262;2022-11-09T00:03:54;2.72;;;2.25;;
26484;SDS011;18083;50.560;7.262;2022-11-09T00:06:22;10.00;;;2.90;;
26484;SDS011;18083;50.560;7.262;2022-11-09T00:08:49;3.17;;;2.02;;
26484;SDS011;18083;50.560;7.262;2022-11-09T00:11:17;2.98;;;2.47;;
26484;SDS011;18083;50.560;7.262;2022-11-09T00:13:45;4.40;;;2.35;;
26484;SDS011;18083;50.560;7.262;2022-11-09T00:16:14;5.33;;;2.80;;
26484;SDS011;18083;50.560;7.262;2022-11-09T00:18:41;3.50;;;2.20;;
26484;SDS011;18083;50.560;7.262;2022-11-09T00:21:18;2.45;;;2.10;;
26484;SDS011;18083;50.560;7.262;2022-11-09T00:23:46;6.28;;;2.87;;
26484;SDS011;18083;50.560;7.262;2022-11-09T00:26:14;4.58;;;2.47;;
26484;SDS011;18083;50.560;7.262;2022-11-09T00:28:41;2.95;;;2.67;;
26484;SDS011;18083;50.560;7.262;2022-11-09T00:31:10;3.58;;;2.70;;
26484;SDS011;18083;50.560;7.262;2022-11-09T00:33:38;3.75;;;2.47;;
26484;SDS011;18083;50.560;7.262;2022-11-09T00:36:06;4.97;;;2.45;;
26484;SDS011;18083;50.560;7.262;2022-11-09T00:38:34;2.80;;;2.40;;
26484;SDS011;18083;50.560;7.262;2022-11-09T00:41:01;3.92;;;2.17;;
26484;SDS011;18083;50.560;7.262;2022-11-09T00:43:29;5.17;;;2.65;;
26484;SDS011;18083;50.560;7.262;2022-11-09T00:45:56;6.50;;;2.40;;
26484;SDS011;18083;50.560;7.262;2022-11-09T00:48:24;4.75;;;2.12;;
26484;SDS011;18083;50.560;7.262;2022-11-09T00:50:52;6.55;;;2.47;;
26484;SDS011;18083;50.560;7.262;2022-11-09T00:53:20;6.05;;;2.72;;
26484;SDS011;18083;50.560;7.262;2022-11-09T00:56:04;2.22;;;2.02;;
26484;SDS011;18083;50.560;7.262;2022-11-09T00:58:33;2.50;;;2.30;;
26484;SDS011;18083;50.560;7.262;2022-11-09T01:01:13;4.03;;;2.37;;
26484;SDS011;18083;50.560;7.262;2022-11-09T01:03:41;4.85;;;2.40;;
26484;SDS011;18083;50.560;7.262;2022-11-09T01:06:12;3.80;;;2.83;;
26484;SDS011;18083;50.560;7.262;2022-11-09T01:08:38;4.75;;;2.80;;
26484;SDS011;18083;50.560;7.262;2022-11-09T01:11:05;5.28;;;3.15;;
26484;SDS011;18083;50.560;7.262;2022-11-09T01:13:34;3.17;;;2.35;;
26484;SDS011;18083;50.560;7.262;2022-11-09T01:16:07;4.65;;;2.90;;
26484;SDS011;18083;50.560;7.262;2022-11-09T01:18:30;2.77;;;2.17;;
26484;SDS011;18083;50.560;7.262;2022-11-09T01:20:58;2.80;;;2.40;;
26484;SDS011;18083;50.560;7.262;2022-11-09T01:23:25;3.77;;;2.42;;
26484;SDS011;18083;50.560;7.262;2022-11-09T01:25:59;4.03;;;2.87;;
26484;SDS011;18083;50.560;7.262;2022-11-09T01:28:26;2.75;;;2.25;;
26484;SDS011;18083;50.560;7.262;2022-11-09T01:30:53;2.80;;;2.42;;
26484;SDS011;18083;50.560;7.262;2022-11-09T01:33:21;5.58;;;2.85;;
26484;SDS011;18083;50.560;7.262;2022-11-09T01:35:48;2.65;;;2.27;;
26484;SDS011;18083;50.560;7.262;2022-11-09T01:38:16;4.20;;;2.87;;
26484;SDS011;18083;50.560;7.262;2022-11-09T01:40:43;2.95;;;2.20;;
26484;SDS011;18083;50.560;7.262;2022-11-09T01:43:17;4.42;;;2.92;;
26484;SDS011;18083;50.560;7.262;2022-11-09T01:45:48;4.45;;;2.60;;
26484;SDS011;18083;50.560;7.262;2022-11-09T01:48:25;3.33;;;2.60;;
26484;SDS011;18083;50.560;7.262;2022-11-09T01:50:50;6.28;;;2.75;;
26484;SDS011;18083;50.560;7.262;2022-11-09T01:53:26;2.30;;;2.10;;
26484;SDS011;18083;50.560;7.262;2022-11-09T01:55:46;2.35;;;2.10;;
26484;SDS011;18083;50.560;7.262;2022-11-09T01:58:16;4.08;;;1.95;;
26484;SDS011;18083;50.560;7.262;2022-11-09T02:00:43;5.20;;;2.17;;
26484;SDS011;18083;50.560;7.262;2022-11-09T02:03:26;3.67;;;2.60;;
26484;SDS011;18083;50.560;7.262;2022-11-09T02:05:50;2.00;;;1.87;;
26484;SDS011;18083;50.560;7.262;2022-11-09T02:08:19;3.55;;;2.33;;
26484;SDS011;18083;50.560;7.262;2022-11-09T02:13:15;3.35;;;2.55;;
26484;SDS011;18083;50.560;7.262;2022-11-09T02:15:44;3.27;;;2.22;;
26484;SDS011;18083;50.560;7.262;2022-11-09T02:18:11;5.55;;;1.92;;
26484;SDS011;18083;50.560;7.262;2022-11-09T02:20:48;4.15;;;1.70;;
26484;SDS011;18083;50.560;7.262;2022-11-09T02:23:13;2.30;;;2.00;;
26484;SDS011;18083;50.560;7.262;2022-11-09T02:25:42;3.80;;;2.10;;
26484;SDS011;18083;50.560;7.262;2022-11-09T02:28:10;3.55;;;1.87;;
26484;SDS011;18083;50.560;7.262;2022-11-09T02:30:37;2.80;;;2.00;;
26484;SDS011;18083;50.560;7.262;2022-11-09T02:33:05;4.75;;;2.67;;
26484;SDS011;18083;50.560;7.262;2022-11-09T02:35:32;1.57;;;1.45;;
26484;SDS011;18083;50.560;7.262;2022-11-09T02:38:00;2.52;;;1.90;;
26484;SDS011;18083;50.560;7.262;2022-11-09T02:40:28;3.58;;;2.02;;
26484;SDS011;18083;50.560;7.262;2022-11-09T02:43:02;3.92;;;2.27;;
26484;SDS011;18083;50.560;7.262;2022-11-09T02:45:26;3.35;;;1.90;;
26484;SDS011;18083;50.560;7.262;2022-11-09T02:47:54;6.50;;;2.25;;
26484;SDS011;18083;50.560;7.262;2022-11-09T02:50:21;6.17;;;2.60;;
26484;SDS011;18083;50.560;7.262;2022-11-09T02:52:48;3.17;;;2.40;;
26484;SDS011;18083;50.560;7.262;2022-11-09T02:55:16;4.05;;;2.10;;
26484;SDS011;18083;50.560;7.262;2022-11-09T02:57:43;5.80;;;2.22;;
26484;SDS011;18083;50.560;7.262;2022-11-09T03:00:11;4.40;;;1.92;;
26484;SDS011;18083;50.560;7.262;2022-11-09T03:02:38;2.35;;;2.15;;
26484;SDS011;18083;50.560;7.262;2022-11-09T03:05:05;3.27;;;2.15;;
26484;SDS011;18083;50.560;7.262;2022-11-09T03:07:33;3.45;;;2.70;;
26484;SDS011;18083;50.560;7.262;2022-11-09T03:10:00;3.22;;;2.20;;
26484;SDS011;18083;50.560;7.262;2022-11-09T03:12:28;4.65;;;2.20;;
26484;SDS011;18083;50.560;7.262;2022-11-09T03:14:59;5.87;;;2.62;;
26484;SDS011;18083;50.560;7.262;2022-11-09T03:17:26;2.95;;;2.25;;
26484;SDS011;18083;50.560;7.262;2022-11-09T03:19:54;4.87;;;2.25;;
26484;SDS011;18083;50.560;7.262;2022-11-09T03:22:21;3.25;;;1.85;;
26484;SDS011;18083;50.560;7.262;2022-11-09T03:24:49;3.90;;;2.08;;
26484;SDS011;18083;50.560;7.262;2022-11-09T03:27:16;4.10;;;1.92;;
26484;SDS011;18083;50.560;7.262;2022-11-09T03:29:43;3.52;;;1.60;;
26484;SDS011;18083;50.560;7.262;2022-11-09T03:32:11;3.52;;;1.60;;
26484;SDS011;18083;50.560;7.262;2022-11-09T03:34:38;2.72;;;1.55;;
26484;SDS011;18083;50.560;7.262;2022-11-09T03:37:06;2.35;;;1.52;;
26484;SDS011;18083;50.560;7.262;2022-11-09T03:39:33;2.00;;;1.42;;
26484;SDS011;18083;50.560;7.262;2022-11-09T03:42:00;2.27;;;1.50;;
26484;SDS011;18083;50.560;7.262;2022-11-09T03:44:28;1.87;;;1.75;;
26484;SDS011;18083;50.560;7.262;2022-11-09T03:46:55;3.98;;;1.98;;
26484;SDS011;18083;50.560;7.262;2022-11-09T03:49:22;6.78;;;2.30;;
26484;SDS011;18083;50.560;7.262;2022-11-09T03:51:50;2.52;;;2.15;;
26484;SDS011;18083;50.560;7.262;2022-11-09T03:54:17;5.67;;;1.98;;
26484;SDS011;18083;50.560;7.262;2022-11-09T03:56:45;4.15;;;2.05;;
26484;SDS011;18083;50.560;7.262;2022-11-09T03:59:12;4.20;;;2.35;;
26484;SDS011;18083;50.560;7.262;2022-11-09T04:01:39;5.08;;;2.65;;
26484;SDS011;18083;50.560;7.262;2022-11-09T04:04:07;2.95;;;2.33;;
26484;SDS011;18083;50.560;7.262;2022-11-09T04:06:34;4.65;;;2.60;;
26484;SDS011;18083;50.560;7.262;2022-11-09T04:09:02;2.92;;;2.17;;
26484;SDS011;18083;50.560;7.262;2022-11-09T04:11:29;2.67;;;2.10;;
26484;SDS011;18083;50.560;7.262;2022-11-09T04:13:56;2.10;;;1.90;;
26484;SDS011;18083;50.560;7.262;2022-11-09T04:16:24;3.10;;;1.82;;
26484;SDS011;18083;50.560;7.262;2022-11-09T04:18:51;2.87;;;1.57;;
26484;SDS011;18083;50.560;7.262;2022-11-09T04:21:19;2.20;;;1.47;;
26484;SDS011;18083;50.560;7.262;2022-11-09T04:23:46;1.65;;;1.55;;
26484;SDS011;18083;50.560;7.262;2022-11-09T04:26:15;2.65;;;1.50;;
26484;SDS011;18083;50.560;7.262;2022-11-09T04:28:42;1.35;;;1.25;;
26484;SDS011;18083;50.560;7.262;2022-11-09T04:31:09;1.45;;;1.40;;
26484;SDS011;18083;50.560;7.262;2022-11-09T04:33:37;1.47;;;1.27;;
26484;SDS011;18083;50.560;7.262;2022-11-09T04:36:04;2.70;;;1.37;;
26484;SDS011;18083;50.560;7.262;2022-11-09T04:38:31;2.10;;;1.10;;
26484;SDS011;18083;50.560;7.262;2022-11-09T04:40:59;1.80;;;1.25;;
26484;SDS011;18083;50.560;7.262;2022-11-09T04:43:27;3.55;;;1.25;;
26484;SDS011;18083;50.560;7.262;2022-11-09T04:45:54;0.72;;;0.70;;
26484;SDS011;18083;50.560;7.262;2022-11-09T04:48:23;2.80;;;1.10;;
26484;SDS011;18083;50.560;7.262;2022-11-09T04:50:50;2.37;;;1.05;;
26484;SDS011;18083;50.560;7.262;2022-11-09T04:53:18;1.22;;;1.12;;
26484;SDS011;18083;50.560;7.262;2022-11-09T04:55:45;1.95;;;1.17;;
26484;SDS011;18083;50.560;7.262;2022-11-09T04:58:13;3.75;;;1.12;;
26484;SDS011;18083;50.560;7.262;2022-11-09T05:00:40;0.98;;;0.90;;
26484;SDS011;18083;50.560;7.262;2022-11-09T05:03:08;0.95;;;0.80;;
26484;SDS011;18083;50.560;7.262;2022-11-09T05:05:36;1.72;;;1.32;;
26484;SDS011;18083;50.560;7.262;2022-11-09T05:08:04;3.37;;;2.02;;
26484;SDS011;18083;50.560;7.262;2022-11-09T05:10:32;1.47;;;1.20;;
26484;SDS011;18083;50.560;7.262;2022-11-09T05:13:00;2.58;;;1.10;;
26484;SDS011;18083;50.560;7.262;2022-11-09T05:15:28;6.30;;;1.45;;
26484;SDS011;18083;50.560;7.262;2022-11-09T05:17:55;1.85;;;1.07;;
26484;SDS011;18083;50.560;7.262;2022-11-09T05:20:23;1.37;;;1.25;;
26484;SDS011;18083;50.560;7.262;2022-11-09T05:22:51;3.70;;;1.37;;
26484;SDS011;18083;50.560;7.262;2022-11-09T05:25:36;1.37;;;0.90;;
26484;SDS011;18083;50.560;7.262;2022-11-09T05:28:03;1.82;;;1.22;;
26484;SDS011;18083;50.560;7.262;2022-11-09T05:30:31;1.35;;;1.25;;
26484;SDS011;18083;50.560;7.262;2022-11-09T05:32:58;2.30;;;1.15;;
26484;SDS011;18083;50.560;7.262;2022-11-09T05:35:25;1.92;;;1.40;;
26484;SDS011;18083;50.560;7.262;2022-11-09T05:37:53;3.77;;;1.80;;
26484;SDS011;18083;50.560;7.262;2022-11-09T05:40:20;1.47;;;1.37;;
26484;SDS011;18083;50.560;7.262;2022-11-09T05:42:47;1.75;;;1.27;;
26484;SDS011;18083;50.560;7.262;2022-11-09T05:45:16;2.90;;;1.50;;
26484;SDS011;18083;50.560;7.262;2022-11-09T05:47:44;1.90;;;1.50;;
26484;SDS011;18083;50.560;7.262;2022-11-09T05:50:12;1.75;;;1.30;;
26484;SDS011;18083;50.560;7.262;2022-11-09T05:52:40;2.15;;;1.55;;
26484;SDS011;18083;50.560;7.262;2022-11-09T05:55:07;2.67;;;1.05;;
26484;SDS011;18083;50.560;7.262;2022-11-09T05:57:35;1.62;;;1.52;;
26484;SDS011;18083;50.560;7.262;2022-11-09T06:00:03;1.92;;;1.65;;
26484;SDS011;18083;50.560;7.262;2022-11-09T06:02:31;4.83;;;1.60;;
26484;SDS011;18083;50.560;7.262;2022-11-09T06:04:58;2.20;;;1.42;;
26484;SDS011;18083;50.560;7.262;2022-11-09T06:07:26;2.05;;;1.42;;
26484;SDS011;18083;50.560;7.262;2022-11-09T06:09:53;1.55;;;1.40;;
26484;SDS011;18083;50.560;7.262;2022-11-09T06:12:20;1.80;;;1.42;;
26484;SDS011;18083;50.560;7.262;2022-11-09T06:14:48;1.30;;;1.20;;
26484;SDS011;18083;50.560;7.262;2022-11-09T06:17:15;4.35;;;1.67;;
26484;SDS011;18083;50.560;7.262;2022-11-09T06:19:42;2.17;;;1.60;;
26484;SDS011;18083;50.560;7.262;2022-11-09T06:22:10;1.80;;;1.22;;
26484;SDS011;18083;50.560;7.262;2022-11-09T06:24:37;1.55;;;1.42;;
26484;SDS011;18083;50.560;7.262;2022-11-09T06:27:05;4.15;;;1.40;;
26484;SDS011;18083;50.560;7.262;2022-11-09T06:29:32;1.87;;;1.55;;
26484;SDS011;18083;50.560;7.262;2022-11-09T06:32:00;1.60;;;1.20;;
26484;SDS011;18083;50.560;7.262;2022-11-09T06:34:27;3.17;;;1.30;;
26484;SDS011;18083;50.560;7.262;2022-11-09T06:36:56;2.02;;;1.27;;
26484;SDS011;18083;50.560;7.262;2022-11-09T06:39:23;2.45;;;1.40;;
26484;SDS011;18083;50.560;7.262;2022-11-09T06:41:50;2.87;;;1.70;;
26484;SDS011;18083;50.560;7.262;2022-11-09T06:44:18;3.83;;;1.42;;
26484;SDS011;18083;50.560;7.262;2022-11-09T06:46:45;3.87;;;1.77;;
26484;SDS011;18083;50.560;7.262;2022-11-09T06:49:12;2.65;;;2.02;;
26484;SDS011;18083;50.560;7.262;2022-11-09T06:51:40;2.80;;;1.05;;
26484;SDS011;18083;50.560;7.262;2022-11-09T06:54:07;2.25;;;1.57;;
26484;SDS011;18083;50.560;7.262;2022-11-09T06:56:34;4.72;;;1.52;;
26484;SDS011;18083;50.560;7.262;2022-11-09T06:59:02;2.65;;;1.50;;
26484;SDS011;18083;50.560;7.262;2022-11-09T07:01:29;3.05;;;1.40;;
26484;SDS011;18083;50.560;7.262;2022-11-09T07:03:56;2.15;;;1.10;;
26484;SDS011;18083;50.560;7.262;2022-11-09T07:06:24;2.67;;;1.20;;
26484;SDS011;18083;50.560;7.262;2022-11-09T07:08:54;4.22;;;1.60;;
26484;SDS011;18083;50.560;7.262;2022-11-09T07:11:22;3.15;;;1.87;;
26484;SDS011;18083;50.560;7.262;2022-11-09T07:13:49;2.17;;;1.40;;
26484;SDS011;18083;50.560;7.262;2022-11-09T07:16:16;4.25;;;1.75;;
26484;SDS011;18083;50.560;7.262;2022-11-09T07:18:44;1.87;;;1.47;;
26484;SDS011;18083;50.560;7.262;2022-11-09T07:21:11;4.45;;;1.47;;
26484;SDS011;18083;50.560;7.262;2022-11-09T07:23:39;1.98;;;1.35;;
26484;SDS011;18083;50.560;7.262;2022-11-09T07:26:06;3.43;;;1.70;;
26484;SDS011;18083;50.560;7.262;2022-11-09T07:28:34;5.10;;;1.40;;
26484;SDS011;18083;50.560;7.262;2022-11-09T07:31:01;2.75;;;1.15;;
26484;SDS011;18083;50.560;7.262;2022-11-09T07:33:30;1.95;;;1.35;;
26484;SDS011;18083;50.560;7.262;2022-11-09T07:35:59;2.05;;;1.45;;
26484;SDS011;18083;50.560;7.262;2022-11-09T07:38:27;4.50;;;1.12;;
26484;SDS011;18083;50.560;7.262;2022-11-09T07:40:57;4.10;;;1.90;;
26484;SDS011;18083;50.560;7.262;2022-11-09T07:43:23;3.62;;;1.42;;
26484;SDS011;18083;50.560;7.262;2022-11-09T07:45:50;1.72;;;1.15;;
26484;SDS011;18083;50.560;7.262;2022-11-09T07:48:18;2.93;;;1.30;;
26484;SDS011;18083;50.560;7.262;2022-11-09T07:50:45;2.10;;;1.45;;
26484;SDS011;18083;50.560;7.262;2022-11-09T07:53:13;2.60;;;1.30;;
26484;SDS011;18083;50.560;7.262;2022-11-09T07:55:41;1.85;;;1.30;;
26484;SDS011;18083;50.560;7.262;2022-11-09T07:58:11;2.87;;;1.55;;
26484;SDS011;18083;50.560;7.262;2022-11-09T08:00:39;5.28;;;1.98;;
26484;SDS011;18083;50.560;7.262;2022-11-09T08:03:06;2.37;;;1.75;;
26484;SDS011;18083;50.560;7.262;2022-11-09T08:05:34;2.37;;;1.90;;
26484;SDS011;18083;50.560;7.262;2022-11-09T08:08:03;3.20;;;2.00;;
26484;SDS011;18083;50.560;7.262;2022-11-09T08:10:31;2.67;;;1.40;;
26484;SDS011;18083;50.560;7.262;2022-11-09T08:13:00;3.72;;;1.57;;
26484;SDS011;18083;50.560;7.262;2022-11-09T08:15:28;4.53;;;1.60;;
26484;SDS011;18083;50.560;7.262;2022-11-09T08:17:59;2.30;;;1.52;;
26484;SDS011;18083;50.560;7.262;2022-11-09T08:20:27;4.28;;;1.52;;
26484;SDS011;18083;50.560;7.262;2022-11-09T08:22:54;4.87;;;2.00;;
26484;SDS011;18083;50.560;7.262;2022-11-09T08:25:22;3.83;;;1.40;;
26484;SDS011;18083;50.560;7.262;2022-11-09T08:27:49;4.45;;;1.55;;
26484;SDS011;18083;50.560;7.262;2022-11-09T08:30:19;3.90;;;1.62;;
26484;SDS011;18083;50.560;7.262;2022-11-09T08:32:47;3.65;;;1.15;;
26484;SDS011;18083;50.560;7.262;2022-11-09T08:35:16;3.60;;;1.75;;
26484;SDS011;18083;50.560;7.262;2022-11-09T08:37:44;6.12;;;1.77;;
26484;SDS011;18083;50.560;7.262;2022-11-09T08:40:12;1.10;;;1.00;;
26484;SDS011;18083;50.560;7.262;2022-11-09T08:42:40;4.90;;;1.80;;
26484;SDS011;18083;50.560;7.262;2022-11-09T08:45:08;1.82;;;1.52;;
26484;SDS011;18083;50.560;7.262;2022-11-09T08:47:35;1.92;;;1.20;;
26484;SDS011;18083;50.560;7.262;2022-11-09T08:50:04;2.80;;;1.40;;
26484;SDS011;18083;50.560;7.262;2022-11-09T08:52:32;2.70;;;0.90;;
26484;SDS011;18083;50.560;7.262;2022-11-09T08:54:59;2.37;;;1.07;;
26484;SDS011;18083;50.560;7.262;2022-11-09T08:57:27;1.92;;;0.80;;
26484;SDS011;18083;50.560;7.262;2022-11-09T08:59:54;2.17;;;1.30;;
26484;SDS011;18083;50.560;7.262;2022-11-09T09:02:21;1.10;;;0.68;;
26484;SDS011;18083;50.560;7.262;2022-11-09T09:04:49;3.10;;;0.90;;
26484;SDS011;18083;50.560;7.262;2022-11-09T09:07:16;2.25;;;0.70;;
26484;SDS011;18083;50.560;7.262;2022-11-09T09:09:44;1.92;;;1.00;;
26484;SDS011;18083;50.560;7.262;2022-11-09T09:12:11;2.10;;;0.60;;
26484;SDS011;18083;50.560;7.262;2022-11-09T09:14:38;1.55;;;0.98;;
26484;SDS011;18083;50.560;7.262;2022-11-09T09:17:06;1.87;;;1.20;;
26484;SDS011;18083;50.560;7.262;2022-11-09T09:19:33;2.17;;;0.78;;
26484;SDS011;18083;50.560;7.262;2022-11-09T09:22:00;1.17;;;0.60;;
26484;SDS011;18083;50.560;7.262;2022-11-09T09:24:28;3.92;;;0.93;;
26484;SDS011;18083;50.560;7.262;2022-11-09T09:26:55;2.90;;;0.93;;
26484;SDS011;18083;50.560;7.262;2022-11-09T09:29:22;0.70;;;0.68;;
26484;SDS011;18083;50.560;7.262;2022-11-09T09:31:50;5.50;;;1.10;;
26484;SDS011;18083;50.560;7.262;2022-11-09T09:34:17;1.77;;;0.80;;
26484;SDS011;18083;50.560;7.262;2022-11-09T09:36:44;2.12;;;1.05;;
26484;SDS011;18083;50.560;7.262;2022-11-09T09:39:12;3.35;;;1.15;;
26484;SDS011;18083;50.560;7.262;2022-11-09T09:41:41;6.80;;;1.35;;
26484;SDS011;18083;50.560;7.262;2022-11-09T09:46:54;2.55;;;0.80;;
26484;SDS011;18083;50.560;7.262;2022-11-09T09:49:23;3.42;;;0.80;;
26484;SDS011;18083;50.560;7.262;2022-11-09T09:54:32;5.03;;;0.80;;
26484;SDS011;18083;50.560;7.262;2022-11-09T09:56:59;2.98;;;1.10;;
26484;SDS011;18083;50.560;7.262;2022-11-09T09:59:35;0.72;;;0.57;;
26484;SDS011;18083;50.560;7.262;2022-11-09T10:02:02;2.62;;;0.85;;
26484;SDS011;18083;50.560;7.262;2022-11-09T10:04:32;1.10;;;0.90;;
26484;SDS011;18083;50.560;7.262;2022-11-09T10:07:08;1.62;;;0.93;;
26484;SDS011;18083;50.560;7.262;2022-11-09T10:12:10;0.80;;;0.55;;
26484;SDS011;18083;50.560;7.262;2022-11-09T10:17:06;4.22;;;1.25;;
26484;SDS011;18083;50.560;7.262;2022-11-09T10:24:53;2.92;;;0.72;;
26484;SDS011;18083;50.560;7.262;2022-11-09T10:29:49;3.02;;;1.00;;
26484;SDS011;18083;50.560;7.262;2022-11-09T10:32:18;2.05;;;1.80;;
26484;SDS011;18083;50.560;7.262;2022-11-09T10:34:53;1.70;;;0.82;;
26484;SDS011;18083;50.560;7.262;2022-11-09T10:37:26;1.15;;;0.72;;
26484;SDS011;18083;50.560;7.262;2022-11-09T10:39:57;4.60;;;1.00;;
26484;SDS011;18083;50.560;7.262;2022-11-09T10:42:24;0.75;;;0.72;;
26484;SDS011;18083;50.560;7.262;2022-11-09T10:44:51;2.33;;;1.00;;
26484;SDS011;18083;50.560;7.262;2022-11-09T10:47:18;3.55;;;1.10;;
26484;SDS011;18083;50.560;7.262;2022-11-09T10:50:04;6.03;;;1.32;;
26484;SDS011;18083;50.560;7.262;2022-11-09T10:52:29;1.60;;;0.70;;
26484;SDS011;18083;50.560;7.262;2022-11-09T10:55:21;2.58;;;0.93;;
26484;SDS011;18083;50.560;7.262;2022-11-09T10:57:51;3.20;;;1.17;;
26484;SDS011;18083;50.560;7.262;2022-11-09T11:00:19;6.28;;;1.22;;
26484;SDS011;18083;50.560;7.262;2022-11-09T11:02:47;3.55;;;1.15;;
26484;SDS011;18083;50.560;7.262;2022-11-09T11:07:44;2.42;;;1.10;;
26484;SDS011;18083;50.560;7.262;2022-11-09T11:12:57;2.27;;;1.20;;
26484;SDS011;18083;50.560;7.262;2022-11-09T11:15:28;4.30;;;1.12;;
26484;SDS011;18083;50.560;7.262;2022-11-09T11:17:59;1.45;;;0.98;;
26484;SDS011;18083;50.560;7.262;2022-11-09T11:20:31;3.70;;;1.30;;
26484;SDS011;18083;50.560;7.262;2022-11-09T11:23:09;1.95;;;1.10;;
26484;SDS011;18083;50.560;7.262;2022-11-09T11:25:33;4.92;;;1.25;;
26484;SDS011;18083;50.560;7.262;2022-11-09T11:28:09;2.02;;;0.93;;
26484;SDS011;18083;50.560;7.262;2022-11-09T11:30:32;6.10;;;2.22;;
26484;SDS011;18083;50.560;7.262;2022-11-09T11:33:01;3.25;;;1.30;;
26484;SDS011;18083;50.560;7.262;2022-11-09T11:40:59;3.52;;;0.90;;
26484;SDS011;18083;50.560;7.262;2022-11-09T11:46:02;4.05;;;2.17;;
26484;SDS011;18083;50.560;7.262;2022-11-09T11:51:12;2.20;;;0.95;;
26484;SDS011;18083;50.560;7.262;2022-11-09T11:59:00;6.42;;;1.35;;
26484;SDS011;18083;50.560;7.262;2022-11-09T12:01:38;2.08;;;1.57;;
26484;SDS011;18083;50.560;7.262;2022-11-09T12:06:41;3.60;;;1.55;;
26484;SDS011;18083;50.560;7.262;2022-11-09T12:09:19;5.67;;;1.45;;
26484;SDS011;18083;50.560;7.262;2022-11-09T12:11:50;2.00;;;1.15;;
26484;SDS011;18083;50.560;7.262;2022-11-09T12:16:50;8.23;;;1.32;;
26484;SDS011;18083;50.560;7.262;2022-11-09T12:24:36;6.78;;;2.08;;
26484;SDS011;18083;50.560;7.262;2022-11-09T12:29:49;4.62;;;1.47;;
26484;SDS011;18083;50.560;7.262;2022-11-09T12:32:30;1.60;;;1.15;;
26484;SDS011;18083;50.560;7.262;2022-11-09T12:37:40;3.17;;;2.05;;
26484;SDS011;18083;50.560;7.262;2022-11-09T12:40:21;8.28;;;2.20;;
26484;SDS011;18083;50.560;7.262;2022-11-09T12:42:46;1.60;;;1.40;;
26484;SDS011;18083;50.560;7.262;2022-11-09T12:45:17;3.05;;;1.67;;
26484;SDS011;18083;50.560;7.262;2022-11-09T12:47:43;4.40;;;1.20;;
26484;SDS011;18083;50.560;7.262;2022-11-09T12:50:19;4.28;;;1.37;;
26484;SDS011;18083;50.560;7.262;2022-11-09T12:52:42;3.65;;;1.12;;
26484;SDS011;18083;50.560;7.262;2022-11-09T12:55:14;3.83;;;1.20;;
26484;SDS011;18083;50.560;7.262;2022-11-09T12:57:45;3.27;;;1.22;;
26484;SDS011;18083;50.560;7.262;2022-11-09T13:03:00;3.90;;;1.22;;
26484;SDS011;18083;50.560;7.262;2022-11-09T13:05:33;3.85;;;1.20;;
26484;SDS011;18083;50.560;7.262;2022-11-09T13:07:58;4.92;;;1.30;;
26484;SDS011;18083;50.560;7.262;2022-11-09T13:10:28;2.15;;;1.20;;
26484;SDS011;18083;50.560;7.262;2022-11-09T13:23:44;2.67;;;1.32;;
26484;SDS011;18083;50.560;7.262;2022-11-09T13:29:09;8.05;;;1.17;;
26484;SDS011;18083;50.560;7.262;2022-11-09T13:35:54;8.85;;;2.08;;
26484;SDS011;18083;50.560;7.262;2022-11-09T13:39:45;4.53;;;1.45;;
26484;SDS011;18083;50.560;7.262;2022-11-09T13:42:31;2.77;;;1.15;;
26484;SDS011;18083;50.560;7.262;2022-11-09T13:47:48;6.05;;;1.00;;
26484;SDS011;18083;50.560;7.262;2022-11-09T13:50:17;3.98;;;1.25;;
26484;SDS011;18083;50.560;7.262;2022-11-09T13:52:46;5.67;;;1.37;;
26484;SDS011;18083;50.560;7.262;2022-11-09T13:55:20;5.47;;;1.25;;
26484;SDS011;18083;50.560;7.262;2022-11-09T13:57:43;6.55;;;1.22;;
26484;SDS011;18083;50.560;7.262;2022-11-09T14:00:18;1.95;;;1.10;;
26484;SDS011;18083;50.560;7.262;2022-11-09T14:02:56;3.22;;;1.42;;
26484;SDS011;18083;50.560;7.262;2022-11-09T14:05:26;2.80;;;1.02;;
26484;SDS011;18083;50.560;7.262;2022-11-09T14:07:54;3.90;;;1.67;;
26484;SDS011;18083;50.560;7.262;2022-11-09T14:10:28;4.28;;;1.75;;
26484;SDS011;18083;50.560;7.262;2022-11-09T14:13:08;4.17;;;1.12;;
26484;SDS011;18083;50.560;7.262;2022-11-09T14:23:30;2.47;;;1.17;;
26484;SDS011;18083;50.560;7.262;2022-11-09T14:26:08;1.42;;;1.00;;
26484;SDS011;18083;50.560;7.262;2022-11-09T14:28:29;5.78;;;1.40;;
26484;SDS011;18083;50.560;7.262;2022-11-09T14:30:56;3.67;;;1.12;;
26484;SDS011;18083;50.560;7.262;2022-11-09T14:33:25;4.72;;;1.60;;
26484;SDS011;18083;50.560;7.262;2022-11-09T14:35:53;5.70;;;1.92;;
26484;SDS011;18083;50.560;7.262;2022-11-09T14:38:27;12.85;;;1.47;;
26484;SDS011;18083;50.560;7.262;2022-11-09T14:40:50;3.42;;;1.22;;
26484;SDS011;18083;50.560;7.262;2022-11-09T14:45:59;7.58;;;1.92;;
26484;SDS011;18083;50.560;7.262;2022-11-09T14:48:22;4.85;;;2.10;;
26484;SDS011;18083;50.560;7.262;2022-11-09T14:50:50;4.28;;;1.40;;
26484;SDS011;18083;50.560;7.262;2022-11-09T14:53:23;4.60;;;1.30;;
26484;SDS011;18083;50.560;7.262;2022-11-09T14:55:52;3.65;;;1.70;;
26484;SDS011;18083;50.560;7.262;2022-11-09T14:58:20;6.03;;;1.82;;
26484;SDS011;18083;50.560;7.262;2022-11-09T15:01:07;6.33;;;2.55;;
26484;SDS011;18083;50.560;7.262;2022-11-09T15:03:34;6.58;;;2.45;;
26484;SDS011;18083;50.560;7.262;2022-11-09T15:06:05;6.40;;;2.25;;
26484;SDS011;18083;50.560;7.262;2022-11-09T15:08:33;4.22;;;1.67;;
26484;SDS011;18083;50.560;7.262;2022-11-09T15:11:01;4.37;;;1.45;;
26484;SDS011;18083;50.560;7.262;2022-11-09T15:13:34;3.95;;;1.40;;
26484;SDS011;18083;50.560;7.262;2022-11-09T15:16:01;4.90;;;1.50;;
26484;SDS011;18083;50.560;7.262;2022-11-09T15:18:29;3.15;;;1.30;;
26484;SDS011;18083;50.560;7.262;2022-11-09T15:23:49;3.08;;;1.27;;
26484;SDS011;18083;50.560;7.262;2022-11-09T15:28:52;12.53;;;3.17;;
26484;SDS011;18083;50.560;7.262;2022-11-09T15:31:20;8.20;;;2.45;;
26484;SDS011;18083;50.560;7.262;2022-11-09T15:33:49;9.08;;;3.22;;
26484;SDS011;18083;50.560;7.262;2022-11-09T15:39:00;8.58;;;1.80;;
26484;SDS011;18083;50.560;7.262;2022-11-09T15:41:27;4.92;;;1.30;;
26484;SDS011;18083;50.560;7.262;2022-11-09T15:43:55;5.05;;;1.67;;
26484;SDS011;18083;50.560;7.262;2022-11-09T15:46:24;5.05;;;1.57;;
26484;SDS011;18083;50.560;7.262;2022-11-09T15:48:52;4.60;;;2.08;;
26484;SDS011;18083;50.560;7.262;2022-11-09T15:51:21;3.05;;;1.77;;
26484;SDS011;18083;50.560;7.262;2022-11-09T15:53:49;6.42;;;2.20;;
26484;SDS011;18083;50.560;7.262;2022-11-09T15:56:17;7.25;;;2.83;;
26484;SDS011;18083;50.560;7.262;2022-11-09T15:58:45;8.33;;;2.50;;
26484;SDS011;18083;50.560;7.262;2022-11-09T16:01:14;7.30;;;3.02;;
26484;SDS011;18083;50.560;7.262;2022-11-09T16:03:41;10.68;;;3.10;;
26484;SDS011;18083;50.560;7.262;2022-11-09T16:06:14;4.28;;;2.95;;
26484;SDS011;18083;50.560;7.262;2022-11-09T16:08:41;3.25;;;1.57;;
26484;SDS011;18083;50.560;7.262;2022-11-09T16:11:08;6.37;;;2.17;;
26484;SDS011;18083;50.560;7.262;2022-11-09T16:13:35;4.90;;;1.65;;
26484;SDS011;18083;50.560;7.262;2022-11-09T16:16:03;3.30;;;2.20;;
26484;SDS011;18083;50.560;7.262;2022-11-09T16:18:31;2.05;;;1.80;;
26484;SDS011;18083;50.560;7.262;2022-11-09T16:21:05;6.08;;;2.45;;
26484;SDS011;18083;50.560;7.262;2022-11-09T16:23:33;8.28;;;2.17;;
26484;SDS011;18083;50.560;7.262;2022-11-09T16:26:07;5.30;;;2.20;;
26484;SDS011;18083;50.560;7.262;2022-11-09T16:28:35;9.23;;;2.70;;
26484;SDS011;18083;50.560;7.262;2022-11-09T16:31:04;7.37;;;2.80;;
26484;SDS011;18083;50.560;7.262;2022-11-09T16:33:32;9.83;;;2.50;;
26484;SDS011;18083;50.560;7.262;2022-11-09T16:36:01;4.35;;;2.33;;
26484;SDS011;18083;50.560;7.262;2022-11-09T16:38:29;3.72;;;2.33;;